sensor_id;sensor_type;location;lat;lon;timestamp;P1;durP1;ratioP1;P2;durP2;ratioP2
76795;SDS011;65745;50.278;18.192;2023-12-04T00:00:05;40.40;;;20.20;;
76795;SDS011;65745;50.278;18.192;2023-12-04T00:03:02;35.70;;;20.10;;
76795;SDS011;65745;50.278;18.192;2023-12-04T00:05:34;39.70;;;22.30;;
76795;SDS011;65745;50.278;18.192;2023-12-04T00:08:06;42.40;;;22.40;;
76795;SDS011;65745;50.278;18.192;2023-12-04T00:10:38;44.40;;;22.60;;
76795;SDS011;65745;50.278;18.192;2023-12-04T00:13:10;60.90;;;30.30;;
76795;SDS011;65745;50.278;18.192;2023-12-04T00:15:42;59.90;;;31.40;;
76795;SDS011;65745;50.278;18.192;2023-12-04T00:18:14;61.10;;;30.70;;
76795;SDS011;65745;50.278;18.192;2023-12-04T00:20:46;43.30;;;23.90;;
76795;SDS011;65745;50.278;18.192;2023-12-04T00:23:18;42.70;;;22.30;;
76795;SDS011;65745;50.278;18.192;2023-12-04T00:25:50;38.60;;;20.90;;
76795;SDS011;65745;50.278;18.192;2023-12-04T00:28:24;41.90;;;21.90;;
76795;SDS011;65745;50.278;18.192;2023-12-04T00:30:57;45.10;;;23.90;;
76795;SDS011;65745;50.278;18.192;2023-12-04T00:33:30;47.30;;;26.20;;
76795;SDS011;65745;50.278;18.192;2023-12-04T00:36:03;38.60;;;23.30;;
76795;SDS011;65745;50.278;18.192;2023-12-04T00:38:35;38.30;;;24.10;;
76795;SDS011;65745;50.278;18.192;2023-12-04T00:41:07;40.70;;;23.10;;
76795;SDS011;65745;50.278;18.192;2023-12-04T00:43:40;37.50;;;23.40;;
76795;SDS011;65745;50.278;18.192;2023-12-04T00:46:12;46.30;;;24.40;;
76795;SDS011;65745;50.278;18.192;2023-12-04T00:48:44;46.20;;;24.00;;
76795;SDS011;65745;50.278;18.192;2023-12-04T00:51:17;45.90;;;26.90;;
76795;SDS011;65745;50.278;18.192;2023-12-04T00:53:49;48.60;;;25.10;;
76795;SDS011;65745;50.278;18.192;2023-12-04T00:56:21;40.20;;;23.10;;
76795;SDS011;65745;50.278;18.192;2023-12-04T00:58:53;41.90;;;22.80;;
76795;SDS011;65745;50.278;18.192;2023-12-04T01:01:25;46.80;;;24.40;;
76795;SDS011;65745;50.278;18.192;2023-12-04T01:03:57;43.00;;;23.30;;
76795;SDS011;65745;50.278;18.192;2023-12-04T01:06:29;37.20;;;20.00;;
76795;SDS011;65745;50.278;18.192;2023-12-04T01:09:01;39.90;;;23.50;;
76795;SDS011;65745;50.278;18.192;2023-12-04T01:11:33;42.40;;;24.10;;
76795;SDS011;65745;50.278;18.192;2023-12-04T01:14:06;44.90;;;24.40;;
76795;SDS011;65745;50.278;18.192;2023-12-04T01:16:38;47.00;;;25.50;;
76795;SDS011;65745;50.278;18.192;2023-12-04T01:19:10;44.00;;;23.60;;
76795;SDS011;65745;50.278;18.192;2023-12-04T01:21:42;41.20;;;23.80;;
76795;SDS011;65745;50.278;18.192;2023-12-04T01:24:15;45.60;;;25.80;;
76795;SDS011;65745;50.278;18.192;2023-12-04T01:26:47;46.60;;;24.00;;
76795;SDS011;65745;50.278;18.192;2023-12-04T01:29:18;47.50;;;24.00;;
76795;SDS011;65745;50.278;18.192;2023-12-04T01:31:50;42.30;;;23.80;;
76795;SDS011;65745;50.278;18.192;2023-12-04T01:34:22;38.90;;;23.80;;
76795;SDS011;65745;50.278;18.192;2023-12-04T01:36:55;39.00;;;21.90;;
76795;SDS011;65745;50.278;18.192;2023-12-04T01:39:27;36.30;;;20.30;;
76795;SDS011;65745;50.278;18.192;2023-12-04T01:41:59;45.20;;;22.20;;
76795;SDS011;65745;50.278;18.192;2023-12-04T01:44:31;36.70;;;20.10;;
76795;SDS011;65745;50.278;18.192;2023-12-04T01:47:05;29.20;;;17.30;;
76795;SDS011;65745;50.278;18.192;2023-12-04T01:49:37;33.00;;;19.20;;
76795;SDS011;65745;50.278;18.192;2023-12-04T01:52:09;33.30;;;19.90;;
76795;SDS011;65745;50.278;18.192;2023-12-04T01:54:42;31.20;;;17.20;;
76795;SDS011;65745;50.278;18.192;2023-12-04T01:57:14;28.30;;;16.40;;
76795;SDS011;65745;50.278;18.192;2023-12-04T01:59:46;27.40;;;17.30;;
76795;SDS011;65745;50.278;18.192;2023-12-04T02:02:19;25.70;;;17.50;;
76795;SDS011;65745;50.278;18.192;2023-12-04T02:04:52;31.20;;;17.20;;
76795;SDS011;65745;50.278;18.192;2023-12-04T02:07:28;29.30;;;16.60;;
76795;SDS011;65745;50.278;18.192;2023-12-04T02:10:01;26.90;;;17.30;;
76795;SDS011;65745;50.278;18.192;2023-12-04T02:12:33;26.70;;;16.70;;
76795;SDS011;65745;50.278;18.192;2023-12-04T02:15:07;29.40;;;16.80;;
76795;SDS011;65745;50.278;18.192;2023-12-04T02:17:40;29.50;;;17.00;;
76795;SDS011;65745;50.278;18.192;2023-12-04T02:20:14;32.10;;;16.80;;
76795;SDS011;65745;50.278;18.192;2023-12-04T02:22:46;31.80;;;17.50;;
76795;SDS011;65745;50.278;18.192;2023-12-04T02:25:18;34.20;;;20.40;;
76795;SDS011;65745;50.278;18.192;2023-12-04T02:28:04;29.00;;;16.70;;
76795;SDS011;65745;50.278;18.192;2023-12-04T02:30:42;31.50;;;19.20;;
76795;SDS011;65745;50.278;18.192;2023-12-04T02:33:16;32.40;;;19.00;;
76795;SDS011;65745;50.278;18.192;2023-12-04T02:35:53;27.00;;;16.80;;
76795;SDS011;65745;50.278;18.192;2023-12-04T02:38:27;30.90;;;18.00;;
76795;SDS011;65745;50.278;18.192;2023-12-04T02:41:01;30.00;;;17.90;;
76795;SDS011;65745;50.278;18.192;2023-12-04T02:43:34;30.60;;;17.20;;
76795;SDS011;65745;50.278;18.192;2023-12-04T02:46:06;29.00;;;17.00;;
76795;SDS011;65745;50.278;18.192;2023-12-04T02:48:38;26.70;;;17.10;;
76795;SDS011;65745;50.278;18.192;2023-12-04T02:51:10;29.80;;;17.50;;
76795;SDS011;65745;50.278;18.192;2023-12-04T02:53:42;29.10;;;17.00;;
76795;SDS011;65745;50.278;18.192;2023-12-04T02:56:14;27.00;;;18.40;;
76795;SDS011;65745;50.278;18.192;2023-12-04T02:58:46;32.90;;;19.50;;
76795;SDS011;65745;50.278;18.192;2023-12-04T03:01:18;34.80;;;20.90;;
76795;SDS011;65745;50.278;18.192;2023-12-04T03:03:50;39.00;;;24.10;;
76795;SDS011;65745;50.278;18.192;2023-12-04T03:06:22;38.90;;;22.40;;
76795;SDS011;65745;50.278;18.192;2023-12-04T03:08:55;40.90;;;22.40;;
76795;SDS011;65745;50.278;18.192;2023-12-04T03:11:28;50.10;;;26.10;;
76795;SDS011;65745;50.278;18.192;2023-12-04T03:14:00;42.10;;;25.10;;
76795;SDS011;65745;50.278;18.192;2023-12-04T03:16:33;37.20;;;23.70;;
76795;SDS011;65745;50.278;18.192;2023-12-04T03:19:05;36.30;;;23.40;;
76795;SDS011;65745;50.278;18.192;2023-12-04T03:21:37;37.20;;;24.40;;
76795;SDS011;65745;50.278;18.192;2023-12-04T03:24:10;39.20;;;23.50;;
76795;SDS011;65745;50.278;18.192;2023-12-04T03:26:42;40.50;;;23.90;;
76795;SDS011;65745;50.278;18.192;2023-12-04T03:29:14;41.70;;;26.70;;
76795;SDS011;65745;50.278;18.192;2023-12-04T03:31:46;39.90;;;23.20;;
76795;SDS011;65745;50.278;18.192;2023-12-04T03:34:18;37.90;;;23.60;;
76795;SDS011;65745;50.278;18.192;2023-12-04T03:36:50;35.10;;;22.20;;
76795;SDS011;65745;50.278;18.192;2023-12-04T03:39:22;31.60;;;20.10;;
76795;SDS011;65745;50.278;18.192;2023-12-04T03:41:54;28.00;;;18.90;;
76795;SDS011;65745;50.278;18.192;2023-12-04T03:44:26;29.10;;;18.10;;
76795;SDS011;65745;50.278;18.192;2023-12-04T03:46:59;29.90;;;18.50;;
76795;SDS011;65745;50.278;18.192;2023-12-04T03:49:31;27.40;;;17.30;;
76795;SDS011;65745;50.278;18.192;2023-12-04T03:52:04;27.50;;;18.10;;
76795;SDS011;65745;50.278;18.192;2023-12-04T03:54:36;31.40;;;18.90;;
76795;SDS011;65745;50.278;18.192;2023-12-04T03:57:08;30.80;;;19.10;;
76795;SDS011;65745;50.278;18.192;2023-12-04T03:59:40;26.40;;;16.20;;
76795;SDS011;65745;50.278;18.192;2023-12-04T04:02:13;28.30;;;19.30;;
76795;SDS011;65745;50.278;18.192;2023-12-04T04:04:45;25.70;;;15.90;;
76795;SDS011;65745;50.278;18.192;2023-12-04T04:07:17;29.30;;;17.30;;
76795;SDS011;65745;50.278;18.192;2023-12-04T04:09:50;23.70;;;16.10;;
76795;SDS011;65745;50.278;18.192;2023-12-04T04:12:22;28.30;;;17.80;;
76795;SDS011;65745;50.278;18.192;2023-12-04T04:14:54;31.20;;;16.80;;
76795;SDS011;65745;50.278;18.192;2023-12-04T04:17:26;28.60;;;17.50;;
76795;SDS011;65745;50.278;18.192;2023-12-04T04:19:58;30.20;;;16.80;;
76795;SDS011;65745;50.278;18.192;2023-12-04T04:22:30;28.20;;;18.80;;
76795;SDS011;65745;50.278;18.192;2023-12-04T04:25:07;25.40;;;16.10;;
76795;SDS011;65745;50.278;18.192;2023-12-04T04:27:40;32.20;;;18.40;;
76795;SDS011;65745;50.278;18.192;2023-12-04T04:30:13;30.60;;;18.40;;
76795;SDS011;65745;50.278;18.192;2023-12-04T04:32:46;29.00;;;18.80;;
76795;SDS011;65745;50.278;18.192;2023-12-04T04:35:18;24.70;;;18.10;;
76795;SDS011;65745;50.278;18.192;2023-12-04T04:37:50;295.40;;;106.20;;
76795;SDS011;65745;50.278;18.192;2023-12-04T04:40:22;722.90;;;331.00;;
76795;SDS011;65745;50.278;18.192;2023-12-04T04:42:54;945.40;;;472.60;;
76795;SDS011;65745;50.278;18.192;2023-12-04T04:45:26;616.50;;;287.50;;
76795;SDS011;65745;50.278;18.192;2023-12-04T04:47:58;298.10;;;105.30;;
76795;SDS011;65745;50.278;18.192;2023-12-04T04:50:30;202.30;;;71.30;;
76795;SDS011;65745;50.278;18.192;2023-12-04T04:53:03;51.60;;;25.90;;
76795;SDS011;65745;50.278;18.192;2023-12-04T04:55:35;131.00;;;49.90;;
76795;SDS011;65745;50.278;18.192;2023-12-04T04:58:17;159.60;;;58.20;;
76795;SDS011;65745;50.278;18.192;2023-12-04T05:00:49;142.30;;;53.60;;
76795;SDS011;65745;50.278;18.192;2023-12-04T05:03:21;57.90;;;27.70;;
76795;SDS011;65745;50.278;18.192;2023-12-04T05:05:53;55.10;;;24.30;;
76795;SDS011;65745;50.278;18.192;2023-12-04T05:08:25;55.60;;;26.20;;
76795;SDS011;65745;50.278;18.192;2023-12-04T05:10:58;30.40;;;18.10;;
76795;SDS011;65745;50.278;18.192;2023-12-04T05:13:30;27.80;;;17.10;;
76795;SDS011;65745;50.278;18.192;2023-12-04T05:16:03;36.80;;;19.70;;
76795;SDS011;65745;50.278;18.192;2023-12-04T05:18:37;37.70;;;18.10;;
76795;SDS011;65745;50.278;18.192;2023-12-04T05:21:10;35.20;;;19.60;;
76795;SDS011;65745;50.278;18.192;2023-12-04T05:23:42;27.30;;;16.50;;
76795;SDS011;65745;50.278;18.192;2023-12-04T05:26:14;40.90;;;20.00;;
76795;SDS011;65745;50.278;18.192;2023-12-04T05:28:46;30.10;;;15.90;;
76795;SDS011;65745;50.278;18.192;2023-12-04T05:31:18;24.80;;;14.20;;
76795;SDS011;65745;50.278;18.192;2023-12-04T05:33:50;25.60;;;14.90;;
76795;SDS011;65745;50.278;18.192;2023-12-04T05:36:22;27.60;;;15.30;;
76795;SDS011;65745;50.278;18.192;2023-12-04T05:38:54;105.80;;;37.30;;
76795;SDS011;65745;50.278;18.192;2023-12-04T05:41:29;72.30;;;36.60;;
76795;SDS011;65745;50.278;18.192;2023-12-04T05:44:02;43.70;;;23.50;;
76795;SDS011;65745;50.278;18.192;2023-12-04T05:46:34;46.10;;;21.10;;
76795;SDS011;65745;50.278;18.192;2023-12-04T05:49:06;49.30;;;20.70;;
76795;SDS011;65745;50.278;18.192;2023-12-04T05:51:39;45.70;;;21.40;;
76795;SDS011;65745;50.278;18.192;2023-12-04T05:54:11;52.30;;;23.90;;
76795;SDS011;65745;50.278;18.192;2023-12-04T05:56:43;48.00;;;21.80;;
76795;SDS011;65745;50.278;18.192;2023-12-04T05:59:15;33.30;;;15.00;;
76795;SDS011;65745;50.278;18.192;2023-12-04T06:01:58;92.00;;;33.30;;
76795;SDS011;65745;50.278;18.192;2023-12-04T06:04:36;68.80;;;35.90;;
76795;SDS011;65745;50.278;18.192;2023-12-04T06:07:08;46.90;;;26.70;;
76795;SDS011;65745;50.278;18.192;2023-12-04T06:09:40;74.00;;;29.20;;
76795;SDS011;65745;50.278;18.192;2023-12-04T06:12:13;67.80;;;34.50;;
76795;SDS011;65745;50.278;18.192;2023-12-04T06:14:44;119.90;;;47.80;;
76795;SDS011;65745;50.278;18.192;2023-12-04T06:17:17;126.30;;;52.50;;
76795;SDS011;65745;50.278;18.192;2023-12-04T06:19:48;125.00;;;51.50;;
76795;SDS011;65745;50.278;18.192;2023-12-04T06:22:21;81.80;;;36.70;;
76795;SDS011;65745;50.278;18.192;2023-12-04T06:24:54;105.80;;;47.00;;
76795;SDS011;65745;50.278;18.192;2023-12-04T06:27:27;68.60;;;31.50;;
76795;SDS011;65745;50.278;18.192;2023-12-04T06:30:01;117.90;;;61.60;;
76795;SDS011;65745;50.278;18.192;2023-12-04T06:32:34;55.80;;;28.10;;
76795;SDS011;65745;50.278;18.192;2023-12-04T06:35:09;47.20;;;25.60;;
76795;SDS011;65745;50.278;18.192;2023-12-04T06:37:45;73.30;;;34.80;;
76795;SDS011;65745;50.278;18.192;2023-12-04T06:40:24;88.40;;;45.40;;
76795;SDS011;65745;50.278;18.192;2023-12-04T06:42:59;108.20;;;54.40;;
76795;SDS011;65745;50.278;18.192;2023-12-04T06:45:32;75.50;;;37.40;;
76795;SDS011;65745;50.278;18.192;2023-12-04T06:48:05;103.60;;;41.80;;
76795;SDS011;65745;50.278;18.192;2023-12-04T06:50:39;139.10;;;59.60;;
76795;SDS011;65745;50.278;18.192;2023-12-04T06:53:12;101.70;;;47.40;;
76795;SDS011;65745;50.278;18.192;2023-12-04T06:55:44;64.60;;;29.70;;
76795;SDS011;65745;50.278;18.192;2023-12-04T06:58:16;61.60;;;28.90;;
76795;SDS011;65745;50.278;18.192;2023-12-04T07:00:48;67.30;;;31.00;;
76795;SDS011;65745;50.278;18.192;2023-12-04T07:03:22;52.20;;;26.80;;
76795;SDS011;65745;50.278;18.192;2023-12-04T07:05:54;26.90;;;15.90;;
76795;SDS011;65745;50.278;18.192;2023-12-04T07:08:26;37.20;;;21.70;;
76795;SDS011;65745;50.278;18.192;2023-12-04T07:10:59;81.00;;;40.60;;
76795;SDS011;65745;50.278;18.192;2023-12-04T07:13:33;84.90;;;40.50;;
76795;SDS011;65745;50.278;18.192;2023-12-04T07:16:07;62.40;;;32.80;;
76795;SDS011;65745;50.278;18.192;2023-12-04T07:18:40;66.90;;;34.20;;
76795;SDS011;65745;50.278;18.192;2023-12-04T07:21:13;89.50;;;43.00;;
76795;SDS011;65745;50.278;18.192;2023-12-04T07:23:45;77.90;;;42.60;;
76795;SDS011;65745;50.278;18.192;2023-12-04T07:26:17;78.10;;;44.00;;
76795;SDS011;65745;50.278;18.192;2023-12-04T07:28:49;62.70;;;33.80;;
76795;SDS011;65745;50.278;18.192;2023-12-04T07:31:21;62.50;;;34.70;;
76795;SDS011;65745;50.278;18.192;2023-12-04T07:33:55;55.70;;;33.20;;
76795;SDS011;65745;50.278;18.192;2023-12-04T07:36:30;56.60;;;28.70;;
76795;SDS011;65745;50.278;18.192;2023-12-04T07:39:02;61.70;;;32.40;;
76795;SDS011;65745;50.278;18.192;2023-12-04T07:41:35;49.80;;;28.00;;
76795;SDS011;65745;50.278;18.192;2023-12-04T07:44:07;83.20;;;41.70;;
76795;SDS011;65745;50.278;18.192;2023-12-04T07:46:39;82.40;;;46.10;;
76795;SDS011;65745;50.278;18.192;2023-12-04T07:49:11;62.60;;;36.00;;
76795;SDS011;65745;50.278;18.192;2023-12-04T07:51:44;67.20;;;33.60;;
76795;SDS011;65745;50.278;18.192;2023-12-04T07:54:16;64.30;;;33.50;;
76795;SDS011;65745;50.278;18.192;2023-12-04T07:56:48;64.30;;;34.00;;
76795;SDS011;65745;50.278;18.192;2023-12-04T07:59:21;66.60;;;35.70;;
76795;SDS011;65745;50.278;18.192;2023-12-04T08:01:53;88.20;;;42.80;;
76795;SDS011;65745;50.278;18.192;2023-12-04T08:04:25;78.30;;;40.40;;
76795;SDS011;65745;50.278;18.192;2023-12-04T08:06:58;104.80;;;47.80;;
76795;SDS011;65745;50.278;18.192;2023-12-04T08:09:30;110.40;;;51.20;;
76795;SDS011;65745;50.278;18.192;2023-12-04T08:12:02;98.00;;;50.90;;
76795;SDS011;65745;50.278;18.192;2023-12-04T08:14:34;88.80;;;40.30;;
76795;SDS011;65745;50.278;18.192;2023-12-04T08:17:06;67.70;;;36.80;;
76795;SDS011;65745;50.278;18.192;2023-12-04T08:19:38;72.50;;;35.70;;
76795;SDS011;65745;50.278;18.192;2023-12-04T08:22:11;80.40;;;41.90;;
76795;SDS011;65745;50.278;18.192;2023-12-04T08:24:43;65.60;;;32.20;;
76795;SDS011;65745;50.278;18.192;2023-12-04T08:27:15;70.40;;;35.10;;
76795;SDS011;65745;50.278;18.192;2023-12-04T08:29:47;83.60;;;38.40;;
76795;SDS011;65745;50.278;18.192;2023-12-04T08:32:19;89.10;;;45.30;;
76795;SDS011;65745;50.278;18.192;2023-12-04T08:34:52;87.60;;;42.50;;
76795;SDS011;65745;50.278;18.192;2023-12-04T08:37:24;59.30;;;33.20;;
76795;SDS011;65745;50.278;18.192;2023-12-04T08:39:56;54.00;;;29.80;;
76795;SDS011;65745;50.278;18.192;2023-12-04T08:42:28;53.60;;;30.20;;
76795;SDS011;65745;50.278;18.192;2023-12-04T08:45:01;55.40;;;34.00;;
76795;SDS011;65745;50.278;18.192;2023-12-04T08:47:35;89.60;;;41.40;;
76795;SDS011;65745;50.278;18.192;2023-12-04T08:50:08;64.70;;;35.90;;
76795;SDS011;65745;50.278;18.192;2023-12-04T08:52:40;72.70;;;37.20;;
76795;SDS011;65745;50.278;18.192;2023-12-04T08:55:12;44.30;;;24.20;;
76795;SDS011;65745;50.278;18.192;2023-12-04T08:57:44;44.30;;;24.30;;
76795;SDS011;65745;50.278;18.192;2023-12-04T09:00:17;44.10;;;26.00;;
76795;SDS011;65745;50.278;18.192;2023-12-04T09:02:49;43.00;;;26.00;;
76795;SDS011;65745;50.278;18.192;2023-12-04T09:05:36;45.40;;;25.30;;
76795;SDS011;65745;50.278;18.192;2023-12-04T09:08:08;48.10;;;26.20;;
76795;SDS011;65745;50.278;18.192;2023-12-04T09:11:00;55.40;;;27.40;;
76795;SDS011;65745;50.278;18.192;2023-12-04T09:13:51;74.00;;;39.10;;
76795;SDS011;65745;50.278;18.192;2023-12-04T09:16:24;92.00;;;43.10;;
76795;SDS011;65745;50.278;18.192;2023-12-04T09:18:56;93.80;;;45.00;;
76795;SDS011;65745;50.278;18.192;2023-12-04T09:21:29;110.70;;;52.40;;
76795;SDS011;65745;50.278;18.192;2023-12-04T09:24:01;84.10;;;42.60;;
76795;SDS011;65745;50.278;18.192;2023-12-04T09:26:34;87.10;;;49.30;;
76795;SDS011;65745;50.278;18.192;2023-12-04T09:29:06;62.70;;;35.70;;
76795;SDS011;65745;50.278;18.192;2023-12-04T09:31:38;51.20;;;28.90;;
76795;SDS011;65745;50.278;18.192;2023-12-04T09:34:10;48.90;;;27.60;;
76795;SDS011;65745;50.278;18.192;2023-12-04T09:36:42;48.90;;;28.50;;
76795;SDS011;65745;50.278;18.192;2023-12-04T09:39:14;47.60;;;29.30;;
76795;SDS011;65745;50.278;18.192;2023-12-04T09:41:46;57.90;;;32.30;;
76795;SDS011;65745;50.278;18.192;2023-12-04T09:44:21;58.00;;;32.40;;
76795;SDS011;65745;50.278;18.192;2023-12-04T09:46:54;56.30;;;32.20;;
76795;SDS011;65745;50.278;18.192;2023-12-04T09:49:26;55.10;;;35.80;;
76795;SDS011;65745;50.278;18.192;2023-12-04T09:52:02;55.30;;;32.20;;
76795;SDS011;65745;50.278;18.192;2023-12-04T09:54:35;54.50;;;31.90;;
76795;SDS011;65745;50.278;18.192;2023-12-04T09:57:07;53.50;;;29.70;;
76795;SDS011;65745;50.278;18.192;2023-12-04T09:59:42;51.00;;;29.70;;
76795;SDS011;65745;50.278;18.192;2023-12-04T10:02:17;53.10;;;33.00;;
76795;SDS011;65745;50.278;18.192;2023-12-04T10:04:51;57.30;;;33.70;;
76795;SDS011;65745;50.278;18.192;2023-12-04T10:07:23;55.40;;;34.80;;
76795;SDS011;65745;50.278;18.192;2023-12-04T10:09:55;51.90;;;28.50;;
76795;SDS011;65745;50.278;18.192;2023-12-04T10:12:27;56.80;;;30.40;;
76795;SDS011;65745;50.278;18.192;2023-12-04T10:15:08;60.40;;;30.40;;
76795;SDS011;65745;50.278;18.192;2023-12-04T10:17:41;58.40;;;33.00;;
76795;SDS011;65745;50.278;18.192;2023-12-04T10:20:15;46.00;;;29.70;;
76795;SDS011;65745;50.278;18.192;2023-12-04T10:22:55;48.40;;;29.40;;
76795;SDS011;65745;50.278;18.192;2023-12-04T10:25:29;49.00;;;31.60;;
76795;SDS011;65745;50.278;18.192;2023-12-04T10:28:10;57.70;;;34.70;;
76795;SDS011;65745;50.278;18.192;2023-12-04T10:30:45;54.00;;;33.60;;
76795;SDS011;65745;50.278;18.192;2023-12-04T10:33:18;58.80;;;35.20;;
76795;SDS011;65745;50.278;18.192;2023-12-04T10:35:51;60.50;;;34.10;;
76795;SDS011;65745;50.278;18.192;2023-12-04T10:38:24;63.20;;;35.10;;
76795;SDS011;65745;50.278;18.192;2023-12-04T10:40:56;61.80;;;33.30;;
76795;SDS011;65745;50.278;18.192;2023-12-04T10:43:47;57.00;;;31.80;;
76795;SDS011;65745;50.278;18.192;2023-12-04T10:46:31;58.10;;;36.00;;
76795;SDS011;65745;50.278;18.192;2023-12-04T10:49:05;50.00;;;29.80;;
76795;SDS011;65745;50.278;18.192;2023-12-04T10:51:39;60.70;;;34.80;;
76795;SDS011;65745;50.278;18.192;2023-12-04T10:54:14;60.30;;;34.50;;
76795;SDS011;65745;50.278;18.192;2023-12-04T10:56:46;61.20;;;36.30;;
76795;SDS011;65745;50.278;18.192;2023-12-04T10:59:23;55.10;;;31.30;;
76795;SDS011;65745;50.278;18.192;2023-12-04T11:02:01;65.10;;;35.30;;
76795;SDS011;65745;50.278;18.192;2023-12-04T11:04:41;62.00;;;29.30;;
76795;SDS011;65745;50.278;18.192;2023-12-04T11:07:14;123.60;;;47.70;;
76795;SDS011;65745;50.278;18.192;2023-12-04T11:09:48;71.50;;;35.40;;
76795;SDS011;65745;50.278;18.192;2023-12-04T11:12:21;58.10;;;33.30;;
76795;SDS011;65745;50.278;18.192;2023-12-04T11:14:56;118.50;;;52.60;;
76795;SDS011;65745;50.278;18.192;2023-12-04T11:17:31;162.70;;;68.10;;
76795;SDS011;65745;50.278;18.192;2023-12-04T11:20:09;68.10;;;36.00;;
76795;SDS011;65745;50.278;18.192;2023-12-04T11:22:46;61.20;;;34.90;;
76795;SDS011;65745;50.278;18.192;2023-12-04T11:25:19;70.80;;;35.30;;
76795;SDS011;65745;50.278;18.192;2023-12-04T11:27:54;77.10;;;41.90;;
76795;SDS011;65745;50.278;18.192;2023-12-04T11:30:27;64.80;;;34.40;;
76795;SDS011;65745;50.278;18.192;2023-12-04T11:33:00;69.10;;;33.60;;
76795;SDS011;65745;50.278;18.192;2023-12-04T11:35:34;57.40;;;29.70;;
76795;SDS011;65745;50.278;18.192;2023-12-04T11:38:06;57.80;;;28.80;;
76795;SDS011;65745;50.278;18.192;2023-12-04T11:40:39;53.10;;;27.70;;
76795;SDS011;65745;50.278;18.192;2023-12-04T11:43:25;61.60;;;30.70;;
76795;SDS011;65745;50.278;18.192;2023-12-04T11:46:08;60.50;;;32.30;;
76795;SDS011;65745;50.278;18.192;2023-12-04T11:48:41;60.80;;;32.80;;
76795;SDS011;65745;50.278;18.192;2023-12-04T11:51:14;57.20;;;29.00;;
76795;SDS011;65745;50.278;18.192;2023-12-04T11:54:08;69.30;;;35.10;;
76795;SDS011;65745;50.278;18.192;2023-12-04T11:56:44;66.60;;;30.60;;
76795;SDS011;65745;50.278;18.192;2023-12-04T11:59:30;39.60;;;22.00;;
76795;SDS011;65745;50.278;18.192;2023-12-04T12:02:08;30.80;;;15.50;;
76795;SDS011;65745;50.278;18.192;2023-12-04T12:04:41;57.70;;;30.30;;
76795;SDS011;65745;50.278;18.192;2023-12-04T12:07:15;48.50;;;25.40;;
76795;SDS011;65745;50.278;18.192;2023-12-04T12:09:47;39.00;;;22.90;;
76795;SDS011;65745;50.278;18.192;2023-12-04T12:12:19;33.50;;;22.40;;
76795;SDS011;65745;50.278;18.192;2023-12-04T12:14:52;35.10;;;21.90;;
76795;SDS011;65745;50.278;18.192;2023-12-04T12:17:24;33.60;;;21.20;;
76795;SDS011;65745;50.278;18.192;2023-12-04T12:19:57;32.50;;;21.50;;
76795;SDS011;65745;50.278;18.192;2023-12-04T12:22:29;43.90;;;24.80;;
76795;SDS011;65745;50.278;18.192;2023-12-04T12:25:02;47.40;;;25.80;;
76795;SDS011;65745;50.278;18.192;2023-12-04T12:27:37;47.90;;;29.80;;
76795;SDS011;65745;50.278;18.192;2023-12-04T12:30:10;39.70;;;21.40;;
76795;SDS011;65745;50.278;18.192;2023-12-04T12:32:42;48.30;;;26.10;;
76795;SDS011;65745;50.278;18.192;2023-12-04T12:35:14;68.10;;;34.40;;
76795;SDS011;65745;50.278;18.192;2023-12-04T12:37:46;58.80;;;30.50;;
76795;SDS011;65745;50.278;18.192;2023-12-04T12:40:21;40.10;;;23.30;;
76795;SDS011;65745;50.278;18.192;2023-12-04T12:42:53;29.30;;;20.30;;
76795;SDS011;65745;50.278;18.192;2023-12-04T12:45:40;30.70;;;19.10;;
76795;SDS011;65745;50.278;18.192;2023-12-04T12:50:45;40.00;;;24.10;;
76795;SDS011;65745;50.278;18.192;2023-12-04T12:53:18;47.60;;;27.10;;
76795;SDS011;65745;50.278;18.192;2023-12-04T12:55:50;50.10;;;28.20;;
76795;SDS011;65745;50.278;18.192;2023-12-04T12:58:25;42.10;;;23.30;;
76795;SDS011;65745;50.278;18.192;2023-12-04T13:00:58;36.50;;;22.80;;
76795;SDS011;65745;50.278;18.192;2023-12-04T13:03:31;39.10;;;23.50;;
76795;SDS011;65745;50.278;18.192;2023-12-04T13:06:06;38.60;;;22.10;;
76795;SDS011;65745;50.278;18.192;2023-12-04T13:08:39;37.00;;;21.40;;
76795;SDS011;65745;50.278;18.192;2023-12-04T13:11:14;37.60;;;22.50;;
76795;SDS011;65745;50.278;18.192;2023-12-04T13:13:47;40.60;;;22.90;;
76795;SDS011;65745;50.278;18.192;2023-12-04T13:16:20;35.30;;;21.20;;
76795;SDS011;65745;50.278;18.192;2023-12-04T13:18:52;34.30;;;20.50;;
76795;SDS011;65745;50.278;18.192;2023-12-04T13:21:24;42.30;;;21.90;;
76795;SDS011;65745;50.278;18.192;2023-12-04T13:23:56;32.80;;;18.40;;
76795;SDS011;65745;50.278;18.192;2023-12-04T13:26:29;57.90;;;31.70;;
76795;SDS011;65745;50.278;18.192;2023-12-04T13:29:01;74.90;;;39.40;;
76795;SDS011;65745;50.278;18.192;2023-12-04T13:31:34;49.60;;;27.70;;
76795;SDS011;65745;50.278;18.192;2023-12-04T13:34:07;50.10;;;29.50;;
76795;SDS011;65745;50.278;18.192;2023-12-04T13:36:40;49.90;;;31.70;;
76795;SDS011;65745;50.278;18.192;2023-12-04T13:39:13;51.30;;;31.50;;
76795;SDS011;65745;50.278;18.192;2023-12-04T13:41:49;43.20;;;28.30;;
76795;SDS011;65745;50.278;18.192;2023-12-04T13:44:39;61.90;;;37.70;;
76795;SDS011;65745;50.278;18.192;2023-12-04T13:47:11;50.40;;;29.40;;
76795;SDS011;65745;50.278;18.192;2023-12-04T13:49:45;56.40;;;30.60;;
76795;SDS011;65745;50.278;18.192;2023-12-04T13:52:18;59.70;;;30.00;;
76795;SDS011;65745;50.278;18.192;2023-12-04T13:54:52;65.10;;;35.00;;
76795;SDS011;65745;50.278;18.192;2023-12-04T13:57:26;88.90;;;46.70;;
76795;SDS011;65745;50.278;18.192;2023-12-04T14:00:02;62.40;;;35.60;;
76795;SDS011;65745;50.278;18.192;2023-12-04T14:02:35;68.30;;;37.70;;
76795;SDS011;65745;50.278;18.192;2023-12-04T14:05:08;54.30;;;31.40;;
76795;SDS011;65745;50.278;18.192;2023-12-04T14:07:45;50.90;;;30.00;;
76795;SDS011;65745;50.278;18.192;2023-12-04T14:10:19;77.90;;;37.00;;
76795;SDS011;65745;50.278;18.192;2023-12-04T14:12:51;86.70;;;46.10;;
76795;SDS011;65745;50.278;18.192;2023-12-04T14:15:24;74.60;;;39.30;;
76795;SDS011;65745;50.278;18.192;2023-12-04T14:17:56;72.40;;;38.60;;
76795;SDS011;65745;50.278;18.192;2023-12-04T14:20:28;101.00;;;47.80;;
76795;SDS011;65745;50.278;18.192;2023-12-04T14:23:00;106.30;;;51.90;;
76795;SDS011;65745;50.278;18.192;2023-12-04T14:25:33;143.20;;;66.20;;
76795;SDS011;65745;50.278;18.192;2023-12-04T14:28:05;171.80;;;82.30;;
76795;SDS011;65745;50.278;18.192;2023-12-04T14:30:38;184.60;;;86.70;;
76795;SDS011;65745;50.278;18.192;2023-12-04T14:33:10;164.50;;;72.40;;
76795;SDS011;65745;50.278;18.192;2023-12-04T14:35:42;169.00;;;81.80;;
76795;SDS011;65745;50.278;18.192;2023-12-04T14:38:14;159.30;;;80.10;;
76795;SDS011;65745;50.278;18.192;2023-12-04T14:40:46;221.40;;;102.30;;
76795;SDS011;65745;50.278;18.192;2023-12-04T14:43:19;185.50;;;91.10;;
76795;SDS011;65745;50.278;18.192;2023-12-04T14:45:51;149.60;;;77.20;;